createdAt,value
2022-09-28T00:00:08.328Z,11.04
2022-09-28T00:02:40.684Z,11.06
2022-09-28T00:05:09.468Z,11.08
2022-09-28T00:07:38.587Z,11.08
2022-09-28T00:10:07.397Z,11.05
2022-09-28T00:12:35.360Z,11.05
2022-09-28T00:15:03.502Z,10.93
2022-09-28T00:17:31.314Z,11.09
2022-09-28T00:19:59.071Z,11.21
2022-09-28T00:22:26.857Z,11.13
2022-09-28T00:24:55.968Z,11.16
2022-09-28T00:27:23.774Z,11.28
2022-09-28T00:29:51.497Z,11.31
2022-09-28T00:32:21.489Z,11.03
2022-09-28T00:34:49.274Z,11.04
2022-09-28T00:37:18.833Z,11.26
2022-09-28T00:39:47.925Z,11.16
2022-09-28T00:42:19.630Z,10.97
2022-09-28T00:44:48.997Z,11.12
2022-09-28T00:47:25.755Z,11.07
2022-09-28T00:49:56.711Z,11.16
2022-09-28T00:52:27.933Z,11.18
2022-09-28T00:54:57.137Z,11.05
2022-09-28T00:57:26.874Z,10.87
2022-09-28T00:59:54.664Z,11.02
2022-09-28T01:02:22.598Z,10.93
2022-09-28T01:04:51.201Z,10.95
2022-09-28T01:07:19.739Z,11.08
2022-09-28T01:09:48.517Z,11.13
2022-09-28T01:12:16.320Z,11.13
2022-09-28T01:14:45.902Z,11.23
2022-09-28T01:17:16.074Z,11.18
2022-09-28T01:20:37.452Z,11.14
2022-09-28T01:23:26.301Z,11.16
2022-09-28T01:25:56.567Z,11.12
2022-09-28T01:28:28.639Z,11.16
2022-09-28T01:31:04.547Z,11.15
2022-09-28T01:33:36.550Z,11.08
2022-09-28T01:36:08.145Z,11.15
2022-09-28T01:38:39.841Z,11.00
2022-09-28T01:41:08.329Z,10.88
2022-09-28T01:43:40.463Z,10.92
2022-09-28T01:46:13.208Z,10.95
2022-09-28T01:48:43.430Z,11.06
2022-09-28T01:51:13.985Z,11.05
2022-09-28T01:53:44.581Z,11.09
2022-09-28T01:56:19.652Z,11.07
2022-09-28T01:58:51.976Z,11.12
2022-09-28T02:01:23.533Z,10.97
2022-09-28T02:03:56.144Z,11.05
2022-09-28T02:06:27.765Z,11.10
2022-09-28T02:08:59.233Z,11.16
2022-09-28T02:11:38.219Z,11.24
2022-09-28T02:14:10.977Z,11.18
2022-09-28T02:16:41.479Z,11.21
2022-09-28T02:19:11.105Z,11.00
2022-09-28T02:21:43.013Z,11.13
2022-09-28T02:24:21.215Z,11.12
2022-09-28T02:26:51.090Z,10.86
2022-09-28T02:29:20.163Z,11.07
2022-09-28T02:31:48.073Z,11.10
2022-09-28T02:34:15.922Z,11.00
2022-09-28T02:36:44.918Z,11.14
2022-09-28T02:39:15.128Z,11.09
2022-09-28T02:41:51.531Z,11.04
2022-09-28T02:44:37.417Z,11.12
2022-09-28T02:47:08.994Z,11.23
2022-09-28T02:49:48.115Z,11.03
2022-09-28T02:52:34.684Z,11.10
2022-09-28T02:55:25.006Z,11.08
2022-09-28T02:58:08.665Z,11.09
2022-09-28T03:00:42.660Z,11.07
2022-09-28T03:03:15.117Z,11.18
2022-09-28T03:05:48.738Z,11.18
2022-09-28T03:08:23.638Z,10.94
2022-09-28T03:10:56.614Z,10.97
2022-09-28T03:13:24.940Z,11.09
2022-09-28T03:15:54.059Z,11.15
2022-09-28T03:18:21.807Z,11.18
2022-09-28T03:20:50.104Z,11.11
2022-09-28T03:23:24.799Z,11.14
2022-09-28T03:25:53.593Z,11.24
2022-09-28T03:28:22.018Z,11.02
2022-09-28T03:30:50.297Z,11.08
2022-09-28T03:33:20.280Z,10.85
2022-09-28T03:35:49.045Z,10.81
2022-09-28T03:38:17.193Z,11.06
2022-09-28T03:40:45.135Z,10.99
2022-09-28T03:43:12.946Z,11.07
2022-09-28T03:45:40.857Z,10.89
2022-09-28T03:48:08.635Z,10.93
2022-09-28T03:50:37.780Z,10.83
2022-09-28T03:53:05.978Z,10.52
2022-09-28T03:55:33.793Z,10.98
2022-09-28T03:58:01.502Z,10.68
2022-09-28T04:00:30.928Z,10.86
2022-09-28T04:02:58.736Z,10.89
2022-09-28T04:05:26.648Z,11.06
2022-09-28T04:07:57.764Z,11.13
2022-09-28T04:10:25.780Z,10.96
2022-09-28T04:12:55.729Z,10.99
2022-09-28T04:15:23.638Z,10.98
2022-09-28T04:17:51.552Z,11.15
2022-09-28T04:20:36.918Z,11.34
2022-09-28T04:23:09.926Z,11.07
2022-09-28T04:25:37.736Z,11.10
2022-09-28T04:28:23.104Z,11.20
2022-09-28T04:30:50.938Z,11.14
2022-09-28T04:33:18.701Z,11.01
2022-09-28T04:35:46.425Z,10.96
2022-09-28T04:38:15.592Z,10.68
2022-09-28T04:40:43.516Z,10.70
2022-09-28T04:43:11.378Z,10.61
2022-09-28T04:45:39.275Z,10.74
2022-09-28T04:48:11.192Z,10.98
2022-09-28T04:51:05.790Z,10.86
2022-09-28T04:53:35.090Z,11.06
2022-09-28T04:56:04.553Z,10.92
2022-09-28T04:58:32.511Z,10.97
2022-09-28T05:01:01.891Z,11.07
2022-09-28T05:03:49.595Z,10.80
2022-09-28T05:06:34.830Z,10.87
2022-09-28T05:09:07.678Z,10.94
2022-09-28T05:11:35.460Z,10.66
2022-09-28T05:14:05.795Z,10.65
2022-09-28T05:16:34.159Z,10.84
2022-09-28T05:19:34.875Z,10.66
2022-09-28T05:22:06.007Z,10.95
2022-09-28T05:24:40.355Z,10.89
2022-09-28T05:27:08.329Z,10.99
2022-09-28T05:29:36.138Z,10.97
2022-09-28T05:32:41.201Z,11.01
2022-09-28T05:35:30.573Z,11.15
2022-09-28T05:38:00.107Z,10.96
2022-09-28T05:40:29.287Z,10.87
2022-09-28T05:43:00.239Z,11.12
2022-09-28T05:45:28.032Z,11.28
2022-09-28T05:47:55.911Z,11.11
2022-09-28T05:50:24.253Z,11.23
2022-09-28T05:53:02.485Z,11.23
2022-09-28T05:55:31.832Z,10.97
2022-09-28T05:58:00.304Z,10.79
2022-09-28T06:00:28.683Z,10.99
2022-09-28T06:03:03.403Z,10.93
2022-09-28T06:05:36.102Z,11.01
2022-09-28T06:08:05.386Z,11.11
2022-09-28T06:10:35.321Z,10.81
2022-09-28T06:13:03.725Z,10.71
2022-09-28T06:15:32.613Z,10.72
2022-09-28T06:18:03.093Z,10.99
2022-09-28T06:20:44.613Z,10.87
2022-09-28T06:23:16.827Z,10.98
2022-09-28T06:25:46.132Z,11.00
2022-09-28T06:28:15.429Z,11.17
2022-09-28T06:30:44.005Z,11.23
2022-09-28T06:33:16.328Z,11.15
2022-09-28T06:35:44.252Z,11.24
2022-09-28T06:38:12.050Z,11.21
2022-09-28T06:40:39.990Z,11.33
2022-09-28T06:43:11.857Z,11.31
2022-09-28T06:45:58.313Z,11.18
2022-09-28T06:48:45.109Z,11.35
2022-09-28T06:51:21.042Z,11.45
2022-09-28T06:53:57.577Z,11.29
2022-09-28T06:56:50.768Z,11.52
2022-09-28T06:59:21.819Z,11.68
2022-09-28T07:01:49.617Z,11.61
2022-09-28T07:04:49.085Z,11.45
2022-09-28T07:07:36.996Z,11.39
2022-09-28T07:10:25.773Z,11.68
2022-09-28T07:13:47.542Z,11.72
2022-09-28T07:16:12.254Z,11.81
2022-09-28T07:18:40.411Z,11.98
2022-09-28T07:21:11.249Z,11.96
2022-09-28T07:23:52.372Z,12.04
2022-09-28T07:26:25.695Z,12.12
2022-09-28T07:29:04.986Z,12.24
2022-09-28T07:31:41.555Z,12.26
2022-09-28T07:34:28.022Z,11.85
2022-09-28T07:37:08.898Z,11.77
2022-09-28T07:39:56.962Z,12.10
2022-09-28T07:42:24.573Z,12.10
2022-09-28T07:44:52.412Z,12.16
2022-09-28T07:47:30.768Z,11.98
2022-09-28T07:50:21.141Z,11.62
2022-09-28T07:53:01.518Z,11.90
2022-09-28T07:55:32.109Z,11.78
2022-09-28T07:58:25.907Z,11.80
2022-09-28T08:01:04.834Z,11.75
2022-09-28T08:03:35.200Z,11.94
2022-09-28T08:06:04.295Z,11.96
2022-09-28T08:08:32.023Z,11.98
2022-09-28T08:11:00.218Z,11.85
2022-09-28T08:14:02.444Z,11.66
2022-09-28T08:16:51.996Z,11.86
2022-09-28T08:20:00.568Z,12.02
2022-09-28T08:22:32.113Z,12.00
2022-09-28T08:25:00.806Z,12.27
2022-09-28T08:27:29.892Z,12.04
2022-09-28T08:29:57.670Z,12.34
2022-09-28T08:32:48.702Z,12.39
2022-09-28T08:35:38.971Z,12.45
2022-09-28T08:38:30.933Z,12.34
2022-09-28T08:41:15.979Z,12.55
2022-09-28T08:44:10.098Z,12.52
2022-09-28T08:47:30.732Z,13.02
2022-09-28T08:50:24.131Z,13.39
2022-09-28T08:53:21.892Z,13.28
2022-09-28T08:56:07.778Z,13.36
2022-09-28T08:58:39.295Z,12.98
2022-09-28T09:01:08.922Z,12.74
2022-09-28T09:03:39.442Z,12.94
2022-09-28T09:06:36.856Z,13.25
2022-09-28T09:09:35.587Z,12.87
2022-09-28T09:12:08.201Z,12.64
2022-09-28T09:14:54.664Z,12.74
2022-09-28T09:17:30.604Z,12.83
2022-09-28T09:20:16.342Z,13.18
2022-09-28T09:23:01.514Z,12.96
2022-09-28T09:25:38.610Z,13.01
2022-09-28T09:28:35.360Z,12.95
2022-09-28T09:31:09.678Z,13.03
2022-09-28T09:33:55.025Z,13.19
2022-09-28T09:37:04.141Z,13.12
2022-09-28T09:40:01.572Z,13.30
2022-09-28T09:42:59.614Z,13.48
2022-09-28T09:46:01.190Z,13.75
2022-09-28T09:49:02.075Z,13.86
2022-09-28T09:51:37.782Z,13.71
2022-09-28T09:54:07.547Z,13.70
2022-09-28T09:56:40.711Z,13.22
2022-09-28T09:59:19.189Z,13.11
2022-09-28T10:02:16.789Z,12.75
2022-09-28T10:04:54.986Z,12.79
2022-09-28T10:07:34.977Z,13.27
2022-09-28T10:10:03.903Z,12.64
2022-09-28T10:12:45.983Z,12.85
2022-09-28T10:15:25.693Z,13.01
2022-09-28T10:18:07.680Z,12.92
2022-09-28T10:20:54.361Z,12.92
2022-09-28T10:23:33.895Z,13.01
2022-09-28T10:26:04.850Z,13.02
2022-09-28T10:28:35.582Z,12.86
2022-09-28T10:31:40.672Z,13.03
2022-09-28T10:34:16.929Z,12.80
2022-09-28T10:36:48.903Z,13.51
2022-09-28T10:39:38.458Z,13.29
2022-09-28T10:42:08.567Z,13.23
2022-09-28T10:44:50.549Z,13.69
2022-09-28T10:47:37.538Z,13.59
2022-09-28T10:50:21.215Z,13.88
2022-09-28T10:52:50.704Z,13.72
2022-09-28T10:56:02.292Z,13.45
2022-09-28T10:58:35.204Z,13.36
2022-09-28T11:01:08.135Z,13.97
2022-09-28T11:03:48.441Z,14.18
2022-09-28T11:06:16.513Z,14.37
2022-09-28T11:08:45.695Z,14.41
2022-09-28T11:11:20.411Z,14.27
2022-09-28T11:13:55.215Z,14.52
2022-09-28T11:16:29.495Z,14.24
2022-09-28T11:19:00.568Z,13.45
2022-09-28T11:21:32.104Z,13.83
2022-09-28T11:24:08.284Z,14.05
2022-09-28T11:26:43.567Z,14.19
2022-09-28T11:29:21.295Z,14.18
2022-09-28T11:32:01.306Z,14.54
2022-09-28T11:34:54.905Z,14.92
2022-09-28T11:37:40.170Z,15.22
2022-09-28T11:40:18.350Z,15.44
2022-09-28T11:42:51.057Z,15.36
2022-09-28T11:45:34.939Z,15.85
2022-09-28T11:48:04.029Z,16.00
2022-09-28T11:50:48.013Z,15.85
2022-09-28T11:53:23.294Z,16.11
2022-09-28T11:55:59.548Z,16.36
2022-09-28T11:58:31.589Z,16.37
2022-09-28T12:01:04.189Z,16.45
2022-09-28T12:03:53.687Z,16.24
2022-09-28T12:06:25.693Z,16.01
2022-09-28T12:08:58.223Z,15.65
2022-09-28T12:11:52.569Z,15.74
2022-09-28T12:14:27.524Z,14.88
2022-09-28T12:17:08.034Z,14.95
2022-09-28T12:19:40.657Z,15.00
2022-09-28T12:22:18.413Z,15.76
2022-09-28T12:24:47.519Z,16.20
2022-09-28T12:27:18.706Z,15.55
2022-09-28T12:29:51.555Z,15.49
2022-09-28T12:32:26.933Z,15.01
2022-09-28T12:34:54.847Z,15.16
2022-09-28T12:37:35.133Z,15.95
2022-09-28T12:40:33.291Z,15.74
2022-09-28T12:43:17.555Z,15.34
2022-09-28T12:46:11.434Z,15.23
2022-09-28T12:49:24.119Z,16.18
2022-09-28T12:51:45.329Z,17.43
2022-09-28T12:54:27.970Z,17.18
2022-09-28T12:57:05.277Z,17.27
2022-09-28T12:59:36.395Z,17.01
2022-09-28T13:02:42.987Z,17.44
2022-09-28T13:05:22.475Z,16.90
2022-09-28T13:07:54.397Z,16.42
2022-09-28T13:10:32.532Z,15.98
2022-09-28T13:13:22.061Z,15.95
2022-09-28T13:15:55.742Z,15.57
2022-09-28T13:18:29.164Z,15.33
2022-09-28T13:21:11.873Z,14.68
2022-09-28T13:23:42.476Z,13.97
2022-09-28T13:26:16.301Z,13.79
2022-09-28T13:28:45.313Z,13.60
2022-09-28T13:31:14.026Z,14.04
2022-09-28T13:33:42.994Z,14.06
2022-09-28T13:36:38.572Z,14.29
2022-09-28T13:39:38.557Z,14.23
2022-09-28T13:42:09.091Z,14.19
2022-09-28T13:44:59.484Z,14.18
2022-09-28T13:47:42.080Z,13.84
2022-09-28T13:50:20.713Z,14.18
2022-09-28T13:52:51.043Z,14.18
2022-09-28T13:55:34.534Z,14.10
2022-09-28T13:58:05.225Z,14.48
2022-09-28T14:00:37.102Z,14.98
2022-09-28T14:03:14.877Z,15.92
2022-09-28T14:06:02.328Z,15.66
2022-09-28T14:08:36.455Z,15.72
2022-09-28T14:11:49.875Z,15.89
2022-09-28T14:14:52.684Z,15.43
2022-09-28T14:17:54.919Z,15.56
2022-09-28T14:20:26.184Z,16.22
2022-09-28T14:23:15.563Z,16.44
2022-09-28T14:25:45.655Z,17.03
2022-09-28T14:28:32.081Z,17.24
2022-09-28T14:31:08.318Z,17.39
2022-09-28T14:33:38.769Z,17.67
2022-09-28T14:36:07.745Z,17.33
2022-09-28T14:38:54.764Z,16.76
2022-09-28T14:41:29.488Z,16.66
2022-09-28T14:44:08.967Z,15.90
2022-09-28T14:46:40.492Z,16.32
2022-09-28T14:49:42.786Z,16.14
2022-09-28T14:52:11.764Z,16.12
2022-09-28T14:54:43.279Z,16.10
2022-09-28T14:57:17.512Z,15.57
2022-09-28T14:59:46.570Z,15.50
2022-09-28T15:02:21.111Z,15.36
2022-09-28T15:04:51.556Z,15.68
2022-09-28T15:07:24.882Z,15.70
2022-09-28T15:09:54.021Z,15.27
2022-09-28T15:12:23.318Z,15.29
2022-09-28T15:14:55.121Z,15.40
2022-09-28T15:17:26.912Z,15.40
2022-09-28T15:20:05.936Z,15.34
2022-09-28T15:22:34.909Z,15.16
2022-09-28T15:25:04.718Z,15.02
2022-09-28T15:27:36.101Z,15.35
2022-09-28T15:30:19.608Z,15.86
2022-09-28T15:32:48.744Z,16.01
2022-09-28T15:35:20.535Z,15.50
2022-09-28T15:37:52.034Z,15.28
2022-09-28T15:40:23.722Z,15.12
2022-09-28T15:42:53.906Z,15.42
2022-09-28T15:45:30.768Z,15.58
2022-09-28T15:48:20.828Z,15.76
2022-09-28T15:51:15.842Z,15.55
2022-09-28T15:53:48.478Z,15.37
2022-09-28T15:56:16.326Z,15.22
2022-09-28T15:58:44.318Z,15.13
2022-09-28T16:01:23.145Z,14.88
2022-09-28T16:03:52.363Z,14.77
2022-09-28T16:06:20.150Z,14.77
2022-09-28T16:08:48.859Z,14.73
2022-09-28T16:11:19.870Z,14.64
2022-09-28T16:13:56.050Z,14.51
2022-09-28T16:16:27.393Z,14.56
2022-09-28T16:18:58.527Z,14.74
2022-09-28T16:21:45.554Z,14.52
2022-09-28T16:24:21.553Z,14.50
2022-09-28T16:26:50.246Z,14.51
2022-09-28T16:29:26.575Z,14.32
2022-09-28T16:31:55.336Z,14.26
2022-09-28T16:34:27.280Z,14.25
2022-09-28T16:36:55.236Z,14.28
2022-09-28T16:39:23.049Z,14.16
2022-09-28T16:41:53.715Z,14.21
2022-09-28T16:44:25.970Z,14.32
2022-09-28T16:46:55.706Z,14.35
2022-09-28T16:49:26.786Z,14.05
2022-09-28T16:51:54.630Z,14.01
2022-09-28T16:54:41.707Z,13.87
2022-09-28T16:57:11.646Z,13.98
2022-09-28T16:59:39.584Z,13.73
2022-09-28T17:02:35.295Z,13.75
2022-09-28T17:05:07.037Z,13.70
2022-09-28T17:07:34.896Z,13.61
2022-09-28T17:10:02.630Z,13.57
2022-09-28T17:12:30.413Z,13.54
2022-09-28T17:15:00.317Z,13.66
2022-09-28T17:17:29.943Z,13.50
2022-09-28T17:19:57.695Z,13.54
2022-09-28T17:22:26.807Z,13.40
2022-09-28T17:24:54.532Z,13.39
2022-09-28T17:27:22.292Z,13.51
2022-09-28T17:29:51.303Z,13.35
2022-09-28T17:32:20.203Z,13.47
2022-09-28T17:34:55.787Z,13.21
2022-09-28T17:37:30.183Z,13.16
2022-09-28T17:39:57.933Z,13.01
2022-09-28T17:42:25.625Z,13.20
2022-09-28T17:44:53.431Z,13.11
2022-09-28T17:47:21.195Z,13.17
2022-09-28T17:49:50.472Z,13.04
2022-09-28T17:52:18.223Z,12.99
2022-09-28T17:54:47.304Z,12.85
2022-09-28T17:57:15.036Z,12.73
2022-09-28T17:59:42.871Z,12.84
2022-09-28T18:02:11.135Z,12.69
2022-09-28T18:04:51.688Z,12.88
2022-09-28T18:07:20.146Z,12.85
2022-09-28T18:09:56.605Z,12.81
2022-09-28T18:12:24.986Z,12.79
2022-09-28T18:14:52.694Z,12.88
2022-09-28T18:17:20.468Z,12.81
2022-09-28T18:19:48.232Z,12.74
2022-09-28T18:22:15.992Z,12.61
2022-09-28T18:24:43.742Z,12.48
2022-09-28T18:27:13.056Z,12.62
2022-09-28T18:29:40.773Z,12.57
2022-09-28T18:32:08.701Z,12.73
2022-09-28T18:34:37.400Z,12.61
2022-09-28T18:37:06.155Z,12.61
2022-09-28T18:39:35.876Z,12.58
2022-09-28T18:42:04.160Z,12.44
2022-09-28T18:44:33.855Z,12.42
2022-09-28T18:47:02.419Z,12.47
2022-09-28T18:49:31.506Z,12.49
2022-09-28T18:51:59.221Z,12.48
2022-09-28T18:54:27.832Z,12.55
2022-09-28T18:56:57.112Z,12.55
2022-09-28T18:59:25.129Z,12.47
2022-09-28T19:01:54.343Z,12.58
2022-09-28T19:04:22.269Z,12.35
2022-09-28T19:06:52.263Z,12.46
2022-09-28T19:09:21.156Z,12.34
2022-09-28T19:11:50.741Z,12.39
2022-09-28T19:14:18.540Z,12.53
2022-09-28T19:16:46.408Z,12.44
2022-09-28T19:19:19.290Z,12.27
2022-09-28T19:21:47.661Z,12.13
2022-09-28T19:24:16.297Z,12.19
2022-09-28T19:26:45.109Z,12.18
2022-09-28T19:29:13.185Z,12.19
2022-09-28T19:31:41.574Z,12.02
2022-09-28T19:34:11.917Z,12.05
2022-09-28T19:36:43.422Z,11.80
2022-09-28T19:39:14.411Z,11.82
2022-09-28T19:41:44.438Z,11.82
2022-09-28T19:44:24.260Z,11.88
2022-09-28T19:46:53.662Z,11.81
2022-09-28T19:49:22.328Z,11.83
2022-09-28T19:52:11.437Z,11.69
2022-09-28T19:54:41.131Z,11.75
2022-09-28T19:57:09.124Z,11.75
2022-09-28T19:59:37.352Z,11.94
2022-09-28T20:02:05.830Z,12.02
2022-09-28T20:04:33.710Z,12.04
2022-09-28T20:07:02.849Z,12.11
2022-09-28T20:09:30.707Z,12.20
2022-09-28T20:11:58.504Z,12.17
2022-09-28T20:14:31.213Z,12.15
2022-09-28T20:17:01.904Z,11.89
2022-09-28T20:19:29.565Z,11.91
2022-09-28T20:21:58.522Z,11.72
2022-09-28T20:24:28.699Z,11.70
2022-09-28T20:26:56.593Z,11.73
2022-09-28T20:29:24.910Z,11.78
2022-09-28T20:31:52.753Z,11.69
2022-09-28T20:34:20.557Z,11.98
2022-09-28T20:36:48.365Z,12.04
2022-09-28T20:39:16.268Z,12.08
2022-09-28T20:41:47.108Z,11.85
2022-09-28T20:44:14.903Z,11.79
2022-09-28T20:46:43.970Z,11.71
2022-09-28T20:49:11.809Z,11.77
2022-09-28T20:51:39.542Z,11.55
2022-09-28T20:54:07.410Z,11.55
2022-09-28T20:56:38.223Z,11.52
2022-09-28T20:59:07.899Z,11.56
2022-09-28T21:01:36.070Z,11.47
2022-09-28T21:04:05.645Z,11.38
2022-09-28T21:06:34.653Z,11.47
2022-09-28T21:09:02.965Z,11.45
2022-09-28T21:11:31.154Z,11.31
2022-09-28T21:13:59.997Z,11.38
2022-09-28T21:16:30.826Z,11.29
2022-09-28T21:18:58.638Z,11.20
2022-09-28T21:21:26.967Z,11.21
2022-09-28T21:23:54.896Z,11.22
2022-09-28T21:26:25.827Z,11.14
2022-09-28T21:28:54.053Z,11.31
2022-09-28T21:31:27.510Z,11.24
2022-09-28T21:33:58.260Z,11.24
2022-09-28T21:36:26.427Z,11.22
2022-09-28T21:38:55.045Z,11.12
2022-09-28T21:41:22.887Z,11.11
2022-09-28T21:43:50.607Z,11.02
2022-09-28T21:46:18.578Z,10.92
2022-09-28T21:48:46.351Z,10.96
2022-09-28T21:51:16.010Z,10.86
2022-09-28T21:53:43.732Z,11.09
2022-09-28T21:56:13.224Z,10.99
2022-09-28T21:58:41.153Z,10.99
2022-09-28T22:01:11.035Z,11.08
2022-09-28T22:03:38.999Z,10.96
2022-09-28T22:06:07.669Z,11.06
2022-09-28T22:08:37.291Z,10.96
2022-09-28T22:11:06.602Z,10.92
2022-09-28T22:13:36.250Z,10.88
2022-09-28T22:16:04.401Z,10.85
2022-09-28T22:18:33.943Z,10.73
2022-09-28T22:21:02.124Z,10.83
2022-09-28T22:23:30.277Z,10.91
2022-09-28T22:26:04.334Z,10.89
2022-09-28T22:28:32.324Z,10.74
2022-09-28T22:31:00.108Z,10.57
2022-09-28T22:33:28.413Z,10.70
2022-09-28T22:35:56.362Z,10.62
2022-09-28T22:38:25.573Z,10.47
2022-09-28T22:40:55.493Z,10.63
2022-09-28T22:43:27.356Z,10.66
2022-09-28T22:46:02.924Z,10.70
2022-09-28T22:48:30.867Z,10.69
2022-09-28T22:50:58.766Z,10.57
2022-09-28T22:53:26.608Z,10.59
2022-09-28T22:55:54.421Z,10.56
2022-09-28T22:58:22.202Z,10.60
2022-09-28T23:00:51.422Z,10.58
2022-09-28T23:03:19.333Z,10.59
2022-09-28T23:05:53.969Z,10.55
2022-09-28T23:08:22.116Z,10.57
2022-09-28T23:10:49.893Z,10.32
2022-09-28T23:13:17.693Z,10.31
2022-09-28T23:15:45.504Z,10.31
2022-09-28T23:18:14.638Z,10.09
2022-09-28T23:20:42.345Z,10.14
2022-09-28T23:23:10.072Z,10.23
2022-09-28T23:25:37.802Z,10.05
2022-09-28T23:28:05.570Z,10.17
2022-09-28T23:30:33.280Z,10.09
2022-09-28T23:33:01.148Z,9.94
2022-09-28T23:35:30.193Z,9.94
2022-09-28T23:37:57.979Z,9.96
2022-09-28T23:40:25.995Z,10.04
2022-09-28T23:42:53.780Z,10.06
2022-09-28T23:45:21.544Z,10.13
2022-09-28T23:47:49.326Z,10.26
2022-09-28T23:50:17.121Z,10.11
2022-09-28T23:52:48.729Z,10.12
2022-09-28T23:55:16.678Z,10.21
2022-09-28T23:57:44.590Z,10.03
